sensor_id;sensor_type;location;lat;lon;timestamp;P1;durP1;ratioP1;P2;durP2;ratioP2
70169;SDS011;57543;45.442;9.212;2023-05-19T00:00:13;9.15;;;5.22;;
70169;SDS011;57543;45.442;9.212;2023-05-19T00:03:17;7.95;;;5.05;;
70169;SDS011;57543;45.442;9.212;2023-05-19T00:06:24;9.47;;;4.60;;
70169;SDS011;57543;45.442;9.212;2023-05-19T00:09:29;9.27;;;5.68;;
70169;SDS011;57543;45.442;9.212;2023-05-19T00:12:33;10.18;;;5.82;;
70169;SDS011;57543;45.442;9.212;2023-05-19T00:15:38;10.80;;;5.10;;
70169;SDS011;57543;45.442;9.212;2023-05-19T00:18:42;9.65;;;5.38;;
70169;SDS011;57543;45.442;9.212;2023-05-19T00:21:45;10.27;;;5.00;;
70169;SDS011;57543;45.442;9.212;2023-05-19T00:24:49;9.13;;;5.20;;
70169;SDS011;57543;45.442;9.212;2023-05-19T00:27:52;9.30;;;5.85;;
70169;SDS011;57543;45.442;9.212;2023-05-19T00:30:55;9.70;;;6.18;;
70169;SDS011;57543;45.442;9.212;2023-05-19T00:33:59;10.65;;;5.95;;
70169;SDS011;57543;45.442;9.212;2023-05-19T00:37:03;9.37;;;6.00;;
70169;SDS011;57543;45.442;9.212;2023-05-19T00:40:07;10.45;;;6.32;;
70169;SDS011;57543;45.442;9.212;2023-05-19T00:43:11;10.75;;;6.13;;
70169;SDS011;57543;45.442;9.212;2023-05-19T00:46:15;10.55;;;5.75;;
70169;SDS011;57543;45.442;9.212;2023-05-19T00:49:18;9.93;;;5.95;;
70169;SDS011;57543;45.442;9.212;2023-05-19T00:52:21;9.70;;;6.13;;
70169;SDS011;57543;45.442;9.212;2023-05-19T00:55:25;9.73;;;5.40;;
70169;SDS011;57543;45.442;9.212;2023-05-19T00:58:31;8.75;;;5.50;;
70169;SDS011;57543;45.442;9.212;2023-05-19T01:01:35;9.75;;;5.68;;
70169;SDS011;57543;45.442;9.212;2023-05-19T01:04:39;9.20;;;5.30;;
70169;SDS011;57543;45.442;9.212;2023-05-19T01:07:43;8.37;;;5.00;;
70169;SDS011;57543;45.442;9.212;2023-05-19T01:10:49;9.45;;;5.43;;
70169;SDS011;57543;45.442;9.212;2023-05-19T01:13:54;9.05;;;5.03;;
70169;SDS011;57543;45.442;9.212;2023-05-19T01:17:00;8.63;;;4.97;;
70169;SDS011;57543;45.442;9.212;2023-05-19T01:20:12;7.57;;;4.90;;
70169;SDS011;57543;45.442;9.212;2023-05-19T01:27:05;7.63;;;4.65;;
70169;SDS011;57543;45.442;9.212;2023-05-19T01:30:25;8.02;;;4.40;;
70169;SDS011;57543;45.442;9.212;2023-05-19T01:33:32;9.50;;;4.30;;
70169;SDS011;57543;45.442;9.212;2023-05-19T01:36:36;6.32;;;3.83;;
70169;SDS011;57543;45.442;9.212;2023-05-19T01:39:41;6.70;;;3.60;;
70169;SDS011;57543;45.442;9.212;2023-05-19T01:42:47;6.18;;;3.95;;
70169;SDS011;57543;45.442;9.212;2023-05-19T01:45:52;8.90;;;4.57;;
70169;SDS011;57543;45.442;9.212;2023-05-19T01:48:58;7.47;;;3.88;;
70169;SDS011;57543;45.442;9.212;2023-05-19T01:52:01;6.90;;;4.00;;
70169;SDS011;57543;45.442;9.212;2023-05-19T01:55:05;9.10;;;4.17;;
70169;SDS011;57543;45.442;9.212;2023-05-19T01:58:30;7.43;;;4.32;;
70169;SDS011;57543;45.442;9.212;2023-05-19T02:01:52;6.97;;;4.40;;
70169;SDS011;57543;45.442;9.212;2023-05-19T02:05:01;7.72;;;4.10;;
70169;SDS011;57543;45.442;9.212;2023-05-19T02:08:20;8.27;;;4.20;;
70169;SDS011;57543;45.442;9.212;2023-05-19T02:11:48;7.13;;;3.90;;
70169;SDS011;57543;45.442;9.212;2023-05-19T02:15:04;8.00;;;4.40;;
70169;SDS011;57543;45.442;9.212;2023-05-19T02:18:14;8.18;;;5.50;;
70169;SDS011;57543;45.442;9.212;2023-05-19T02:21:20;9.45;;;5.20;;
70169;SDS011;57543;45.442;9.212;2023-05-19T02:24:24;9.43;;;5.45;;
70169;SDS011;57543;45.442;9.212;2023-05-19T02:27:28;12.23;;;6.17;;
70169;SDS011;57543;45.442;9.212;2023-05-19T02:30:32;9.50;;;6.32;;
70169;SDS011;57543;45.442;9.212;2023-05-19T02:33:37;10.00;;;6.75;;
70169;SDS011;57543;45.442;9.212;2023-05-19T02:36:41;11.07;;;7.03;;
70169;SDS011;57543;45.442;9.212;2023-05-19T02:39:52;12.75;;;6.43;;
70169;SDS011;57543;45.442;9.212;2023-05-19T02:42:56;8.57;;;5.73;;
70169;SDS011;57543;45.442;9.212;2023-05-19T02:46:00;9.85;;;6.35;;
70169;SDS011;57543;45.442;9.212;2023-05-19T02:49:03;12.35;;;6.80;;
70169;SDS011;57543;45.442;9.212;2023-05-19T02:52:07;10.00;;;5.93;;
70169;SDS011;57543;45.442;9.212;2023-05-19T02:55:11;9.23;;;6.10;;
70169;SDS011;57543;45.442;9.212;2023-05-19T02:58:18;10.20;;;6.13;;
70169;SDS011;57543;45.442;9.212;2023-05-19T03:01:23;10.48;;;6.40;;
70169;SDS011;57543;45.442;9.212;2023-05-19T03:04:26;10.05;;;6.95;;
70169;SDS011;57543;45.442;9.212;2023-05-19T03:07:31;10.25;;;6.95;;
70169;SDS011;57543;45.442;9.212;2023-05-19T03:10:35;12.60;;;7.13;;
70169;SDS011;57543;45.442;9.212;2023-05-19T03:13:39;9.80;;;6.53;;
70169;SDS011;57543;45.442;9.212;2023-05-19T03:16:43;12.18;;;6.70;;
70169;SDS011;57543;45.442;9.212;2023-05-19T03:19:47;9.70;;;6.57;;
70169;SDS011;57543;45.442;9.212;2023-05-19T03:22:51;9.35;;;5.95;;
70169;SDS011;57543;45.442;9.212;2023-05-19T03:25:55;11.35;;;7.47;;
70169;SDS011;57543;45.442;9.212;2023-05-19T03:29:00;12.77;;;6.97;;
70169;SDS011;57543;45.442;9.212;2023-05-19T03:32:04;10.60;;;7.13;;
70169;SDS011;57543;45.442;9.212;2023-05-19T03:35:07;18.27;;;8.18;;
70169;SDS011;57543;45.442;9.212;2023-05-19T03:38:11;12.10;;;7.20;;
70169;SDS011;57543;45.442;9.212;2023-05-19T03:41:16;11.02;;;6.97;;
70169;SDS011;57543;45.442;9.212;2023-05-19T03:44:20;10.90;;;6.43;;
70169;SDS011;57543;45.442;9.212;2023-05-19T03:47:24;12.45;;;6.93;;
70169;SDS011;57543;45.442;9.212;2023-05-19T03:50:59;10.88;;;6.80;;
70169;SDS011;57543;45.442;9.212;2023-05-19T03:54:03;11.25;;;7.25;;
70169;SDS011;57543;45.442;9.212;2023-05-19T03:57:08;10.88;;;7.00;;
70169;SDS011;57543;45.442;9.212;2023-05-19T04:00:13;11.23;;;6.70;;
70169;SDS011;57543;45.442;9.212;2023-05-19T04:03:17;10.80;;;6.53;;
70169;SDS011;57543;45.442;9.212;2023-05-19T04:06:20;10.93;;;6.18;;
70169;SDS011;57543;45.442;9.212;2023-05-19T04:09:24;9.98;;;6.38;;
70169;SDS011;57543;45.442;9.212;2023-05-19T04:12:27;10.13;;;6.20;;
70169;SDS011;57543;45.442;9.212;2023-05-19T04:15:31;9.27;;;5.20;;
70169;SDS011;57543;45.442;9.212;2023-05-19T04:18:34;9.25;;;5.00;;
70169;SDS011;57543;45.442;9.212;2023-05-19T04:21:38;9.35;;;5.45;;
70169;SDS011;57543;45.442;9.212;2023-05-19T04:24:41;8.65;;;4.78;;
70169;SDS011;57543;45.442;9.212;2023-05-19T04:27:45;7.85;;;5.25;;
70169;SDS011;57543;45.442;9.212;2023-05-19T04:30:51;9.63;;;5.00;;
70169;SDS011;57543;45.442;9.212;2023-05-19T04:33:54;8.05;;;4.72;;
70169;SDS011;57543;45.442;9.212;2023-05-19T04:36:59;7.82;;;4.82;;
70169;SDS011;57543;45.442;9.212;2023-05-19T04:40:03;10.10;;;5.03;;
70169;SDS011;57543;45.442;9.212;2023-05-19T04:43:08;9.27;;;4.47;;
70169;SDS011;57543;45.442;9.212;2023-05-19T04:46:14;8.57;;;4.07;;
70169;SDS011;57543;45.442;9.212;2023-05-19T04:49:19;8.18;;;4.60;;
70169;SDS011;57543;45.442;9.212;2023-05-19T04:52:23;8.07;;;4.30;;
70169;SDS011;57543;45.442;9.212;2023-05-19T04:55:27;8.05;;;4.53;;
70169;SDS011;57543;45.442;9.212;2023-05-19T04:58:31;8.52;;;4.43;;
70169;SDS011;57543;45.442;9.212;2023-05-19T05:01:36;9.17;;;4.43;;
70169;SDS011;57543;45.442;9.212;2023-05-19T05:04:42;8.57;;;4.68;;
70169;SDS011;57543;45.442;9.212;2023-05-19T05:07:46;8.07;;;4.43;;
70169;SDS011;57543;45.442;9.212;2023-05-19T05:10:52;9.05;;;4.88;;
70169;SDS011;57543;45.442;9.212;2023-05-19T05:13:56;10.23;;;4.95;;
70169;SDS011;57543;45.442;9.212;2023-05-19T05:17:05;8.13;;;4.23;;
70169;SDS011;57543;45.442;9.212;2023-05-19T05:20:10;10.85;;;4.47;;
70169;SDS011;57543;45.442;9.212;2023-05-19T05:23:14;8.48;;;4.07;;
70169;SDS011;57543;45.442;9.212;2023-05-19T05:26:20;8.82;;;4.55;;
70169;SDS011;57543;45.442;9.212;2023-05-19T05:29:32;10.80;;;5.15;;
70169;SDS011;57543;45.442;9.212;2023-05-19T05:32:37;8.77;;;4.73;;
70169;SDS011;57543;45.442;9.212;2023-05-19T05:35:46;7.82;;;4.38;;
70169;SDS011;57543;45.442;9.212;2023-05-19T05:38:52;7.47;;;4.38;;
70169;SDS011;57543;45.442;9.212;2023-05-19T05:41:56;8.40;;;4.60;;
70169;SDS011;57543;45.442;9.212;2023-05-19T05:45:00;9.35;;;4.32;;
70169;SDS011;57543;45.442;9.212;2023-05-19T05:48:04;8.57;;;4.20;;
70169;SDS011;57543;45.442;9.212;2023-05-19T05:51:08;7.80;;;4.00;;
70169;SDS011;57543;45.442;9.212;2023-05-19T05:54:13;10.38;;;5.00;;
70169;SDS011;57543;45.442;9.212;2023-05-19T05:57:22;8.25;;;4.50;;
70169;SDS011;57543;45.442;9.212;2023-05-19T06:00:26;9.00;;;4.90;;
70169;SDS011;57543;45.442;9.212;2023-05-19T06:03:30;9.00;;;4.73;;
70169;SDS011;57543;45.442;9.212;2023-05-19T06:06:40;11.20;;;5.03;;
70169;SDS011;57543;45.442;9.212;2023-05-19T06:09:44;8.07;;;4.32;;
70169;SDS011;57543;45.442;9.212;2023-05-19T06:12:48;10.77;;;4.93;;
70169;SDS011;57543;45.442;9.212;2023-05-19T06:15:52;9.57;;;4.90;;
70169;SDS011;57543;45.442;9.212;2023-05-19T06:19:01;8.87;;;4.83;;
70169;SDS011;57543;45.442;9.212;2023-05-19T06:22:04;9.23;;;5.00;;
70169;SDS011;57543;45.442;9.212;2023-05-19T06:25:08;10.18;;;4.95;;
70169;SDS011;57543;45.442;9.212;2023-05-19T06:28:11;10.20;;;5.78;;
70169;SDS011;57543;45.442;9.212;2023-05-19T06:31:15;12.07;;;5.93;;
70169;SDS011;57543;45.442;9.212;2023-05-19T06:34:41;11.13;;;5.70;;
70169;SDS011;57543;45.442;9.212;2023-05-19T06:37:45;11.68;;;5.60;;
70169;SDS011;57543;45.442;9.212;2023-05-19T06:40:49;12.82;;;5.53;;
70169;SDS011;57543;45.442;9.212;2023-05-19T06:43:53;20.80;;;6.50;;
70169;SDS011;57543;45.442;9.212;2023-05-19T06:47:00;12.90;;;6.25;;
70169;SDS011;57543;45.442;9.212;2023-05-19T06:50:04;12.77;;;5.90;;
70169;SDS011;57543;45.442;9.212;2023-05-19T06:53:11;12.75;;;6.20;;
70169;SDS011;57543;45.442;9.212;2023-05-19T06:56:15;10.07;;;5.90;;
70169;SDS011;57543;45.442;9.212;2023-05-19T06:59:20;13.23;;;6.43;;
70169;SDS011;57543;45.442;9.212;2023-05-19T07:02:25;11.00;;;6.15;;
70169;SDS011;57543;45.442;9.212;2023-05-19T07:05:29;11.70;;;5.90;;
70169;SDS011;57543;45.442;9.212;2023-05-19T07:08:34;11.63;;;6.00;;
70169;SDS011;57543;45.442;9.212;2023-05-19T07:11:40;11.55;;;5.60;;
70169;SDS011;57543;45.442;9.212;2023-05-19T07:14:45;13.07;;;6.40;;
70169;SDS011;57543;45.442;9.212;2023-05-19T07:17:50;12.52;;;6.15;;
70169;SDS011;57543;45.442;9.212;2023-05-19T07:20:54;10.83;;;5.67;;
70169;SDS011;57543;45.442;9.212;2023-05-19T07:23:58;10.80;;;6.07;;
70169;SDS011;57543;45.442;9.212;2023-05-19T07:27:03;11.50;;;6.65;;
70169;SDS011;57543;45.442;9.212;2023-05-19T07:30:07;11.35;;;6.03;;
70169;SDS011;57543;45.442;9.212;2023-05-19T07:33:11;11.95;;;6.10;;
70169;SDS011;57543;45.442;9.212;2023-05-19T07:36:15;12.23;;;6.27;;
70169;SDS011;57543;45.442;9.212;2023-05-19T07:39:19;12.10;;;6.07;;
70169;SDS011;57543;45.442;9.212;2023-05-19T07:42:22;14.43;;;6.32;;
70169;SDS011;57543;45.442;9.212;2023-05-19T07:45:26;13.60;;;5.70;;
70169;SDS011;57543;45.442;9.212;2023-05-19T07:48:30;9.90;;;5.72;;
70169;SDS011;57543;45.442;9.212;2023-05-19T07:51:34;10.40;;;5.53;;
70169;SDS011;57543;45.442;9.212;2023-05-19T07:54:38;11.07;;;5.18;;
70169;SDS011;57543;45.442;9.212;2023-05-19T07:57:41;9.88;;;5.45;;
70169;SDS011;57543;45.442;9.212;2023-05-19T08:00:45;11.88;;;5.57;;
70169;SDS011;57543;45.442;9.212;2023-05-19T08:03:49;10.80;;;5.88;;
70169;SDS011;57543;45.442;9.212;2023-05-19T08:06:52;11.23;;;5.83;;
70169;SDS011;57543;45.442;9.212;2023-05-19T08:09:57;12.75;;;6.40;;
70169;SDS011;57543;45.442;9.212;2023-05-19T08:13:00;12.10;;;5.82;;
70169;SDS011;57543;45.442;9.212;2023-05-19T08:16:04;10.35;;;5.88;;
70169;SDS011;57543;45.442;9.212;2023-05-19T08:19:08;13.23;;;6.55;;
70169;SDS011;57543;45.442;9.212;2023-05-19T08:22:11;10.47;;;6.00;;
70169;SDS011;57543;45.442;9.212;2023-05-19T08:25:15;12.63;;;5.70;;
70169;SDS011;57543;45.442;9.212;2023-05-19T08:28:19;11.07;;;6.20;;
70169;SDS011;57543;45.442;9.212;2023-05-19T08:31:22;11.38;;;5.45;;
70169;SDS011;57543;45.442;9.212;2023-05-19T08:34:27;10.70;;;5.78;;
70169;SDS011;57543;45.442;9.212;2023-05-19T08:37:30;10.47;;;5.40;;
70169;SDS011;57543;45.442;9.212;2023-05-19T08:40:34;10.15;;;5.18;;
70169;SDS011;57543;45.442;9.212;2023-05-19T08:43:39;9.60;;;5.75;;
70169;SDS011;57543;45.442;9.212;2023-05-19T08:46:43;10.63;;;6.10;;
70169;SDS011;57543;45.442;9.212;2023-05-19T08:49:49;14.13;;;6.32;;
70169;SDS011;57543;45.442;9.212;2023-05-19T08:53:38;14.20;;;7.20;;
70169;SDS011;57543;45.442;9.212;2023-05-19T08:56:25;11.60;;;6.35;;
70169;SDS011;57543;45.442;9.212;2023-05-19T08:59:30;11.52;;;6.38;;
70169;SDS011;57543;45.442;9.212;2023-05-19T09:02:35;11.02;;;6.38;;
70169;SDS011;57543;45.442;9.212;2023-05-19T09:05:41;10.85;;;6.38;;
70169;SDS011;57543;45.442;9.212;2023-05-19T09:08:45;10.80;;;6.53;;
70169;SDS011;57543;45.442;9.212;2023-05-19T09:11:49;13.20;;;6.97;;
70169;SDS011;57543;45.442;9.212;2023-05-19T09:14:53;11.23;;;7.10;;
70169;SDS011;57543;45.442;9.212;2023-05-19T09:21:13;12.35;;;7.28;;
70169;SDS011;57543;45.442;9.212;2023-05-19T09:24:17;12.67;;;7.40;;
70169;SDS011;57543;45.442;9.212;2023-05-19T09:27:21;11.02;;;6.85;;
70169;SDS011;57543;45.442;9.212;2023-05-19T09:30:28;13.05;;;7.38;;
70169;SDS011;57543;45.442;9.212;2023-05-19T09:33:32;17.50;;;8.05;;
70169;SDS011;57543;45.442;9.212;2023-05-19T09:36:38;14.20;;;7.75;;
70169;SDS011;57543;45.442;9.212;2023-05-19T09:39:43;17.10;;;8.87;;
70169;SDS011;57543;45.442;9.212;2023-05-19T09:42:51;12.52;;;6.78;;
70169;SDS011;57543;45.442;9.212;2023-05-19T09:49:08;11.80;;;7.30;;
70169;SDS011;57543;45.442;9.212;2023-05-19T09:52:13;11.23;;;6.97;;
70169;SDS011;57543;45.442;9.212;2023-05-19T09:55:18;12.60;;;7.20;;
70169;SDS011;57543;45.442;9.212;2023-05-19T09:58:25;14.65;;;7.80;;
70169;SDS011;57543;45.442;9.212;2023-05-19T10:01:29;14.77;;;7.10;;
70169;SDS011;57543;45.442;9.212;2023-05-19T10:04:35;13.32;;;7.57;;
70169;SDS011;57543;45.442;9.212;2023-05-19T10:07:40;12.30;;;7.68;;
70169;SDS011;57543;45.442;9.212;2023-05-19T10:10:46;15.50;;;7.57;;
70169;SDS011;57543;45.442;9.212;2023-05-19T10:13:50;12.75;;;7.80;;
70169;SDS011;57543;45.442;9.212;2023-05-19T10:16:55;13.18;;;7.10;;
70169;SDS011;57543;45.442;9.212;2023-05-19T10:20:02;10.77;;;6.30;;
70169;SDS011;57543;45.442;9.212;2023-05-19T10:23:06;13.10;;;7.60;;
70169;SDS011;57543;45.442;9.212;2023-05-19T10:26:10;12.83;;;7.60;;
70169;SDS011;57543;45.442;9.212;2023-05-19T10:29:16;15.13;;;8.25;;
70169;SDS011;57543;45.442;9.212;2023-05-19T10:32:25;10.55;;;6.63;;
70169;SDS011;57543;45.442;9.212;2023-05-19T10:38:59;13.68;;;6.20;;
70169;SDS011;57543;45.442;9.212;2023-05-19T10:42:15;11.53;;;6.47;;
70169;SDS011;57543;45.442;9.212;2023-05-19T10:45:29;13.52;;;7.22;;
70169;SDS011;57543;45.442;9.212;2023-05-19T10:48:36;13.93;;;7.93;;
70169;SDS011;57543;45.442;9.212;2023-05-19T10:51:40;12.60;;;7.65;;
70169;SDS011;57543;45.442;9.212;2023-05-19T10:54:47;14.55;;;9.07;;
70169;SDS011;57543;45.442;9.212;2023-05-19T10:57:54;14.17;;;8.13;;
70169;SDS011;57543;45.442;9.212;2023-05-19T11:01:05;13.32;;;8.60;;
70169;SDS011;57543;45.442;9.212;2023-05-19T11:04:10;12.00;;;7.82;;
70169;SDS011;57543;45.442;9.212;2023-05-19T11:07:16;12.70;;;7.82;;
70169;SDS011;57543;45.442;9.212;2023-05-19T11:10:22;11.93;;;7.40;;
70169;SDS011;57543;45.442;9.212;2023-05-19T11:13:26;14.17;;;9.10;;
70169;SDS011;57543;45.442;9.212;2023-05-19T11:16:30;11.35;;;7.57;;
70169;SDS011;57543;45.442;9.212;2023-05-19T11:19:34;15.85;;;8.60;;
70169;SDS011;57543;45.442;9.212;2023-05-19T11:22:38;14.73;;;9.40;;
70169;SDS011;57543;45.442;9.212;2023-05-19T11:28:46;13.70;;;9.00;;
70169;SDS011;57543;45.442;9.212;2023-05-19T11:31:50;14.15;;;9.32;;
70169;SDS011;57543;45.442;9.212;2023-05-19T11:34:54;15.32;;;9.02;;
70169;SDS011;57543;45.442;9.212;2023-05-19T11:38:00;13.23;;;8.95;;
70169;SDS011;57543;45.442;9.212;2023-05-19T11:41:04;15.85;;;10.10;;
70169;SDS011;57543;45.442;9.212;2023-05-19T11:44:11;14.10;;;8.97;;
70169;SDS011;57543;45.442;9.212;2023-05-19T11:47:15;12.95;;;8.23;;
70169;SDS011;57543;45.442;9.212;2023-05-19T11:50:19;15.48;;;8.98;;
70169;SDS011;57543;45.442;9.212;2023-05-19T11:53:22;13.73;;;8.82;;
70169;SDS011;57543;45.442;9.212;2023-05-19T11:56:26;13.15;;;8.63;;
70169;SDS011;57543;45.442;9.212;2023-05-19T11:59:34;15.30;;;9.83;;
70169;SDS011;57543;45.442;9.212;2023-05-19T12:02:38;16.17;;;8.85;;
70169;SDS011;57543;45.442;9.212;2023-05-19T12:05:43;15.75;;;9.50;;
70169;SDS011;57543;45.442;9.212;2023-05-19T12:08:49;14.68;;;8.40;;
70169;SDS011;57543;45.442;9.212;2023-05-19T12:11:54;16.17;;;8.48;;
70169;SDS011;57543;45.442;9.212;2023-05-19T12:14:57;17.53;;;9.23;;
70169;SDS011;57543;45.442;9.212;2023-05-19T12:18:05;12.45;;;7.57;;
70169;SDS011;57543;45.442;9.212;2023-05-19T12:21:09;14.55;;;8.00;;
70169;SDS011;57543;45.442;9.212;2023-05-19T12:24:12;13.43;;;8.77;;
70169;SDS011;57543;45.442;9.212;2023-05-19T12:27:21;15.05;;;7.90;;
70169;SDS011;57543;45.442;9.212;2023-05-19T12:30:26;13.13;;;7.47;;
70169;SDS011;57543;45.442;9.212;2023-05-19T12:33:31;13.93;;;7.35;;
70169;SDS011;57543;45.442;9.212;2023-05-19T12:36:35;13.88;;;7.50;;
70169;SDS011;57543;45.442;9.212;2023-05-19T12:39:40;11.70;;;7.07;;
70169;SDS011;57543;45.442;9.212;2023-05-19T12:42:44;14.32;;;7.28;;
70169;SDS011;57543;45.442;9.212;2023-05-19T12:45:49;14.13;;;7.80;;
70169;SDS011;57543;45.442;9.212;2023-05-19T12:48:52;12.15;;;7.32;;
70169;SDS011;57543;45.442;9.212;2023-05-19T12:52:06;13.70;;;8.18;;
70169;SDS011;57543;45.442;9.212;2023-05-19T12:55:09;12.35;;;7.70;;
70169;SDS011;57543;45.442;9.212;2023-05-19T12:58:16;15.18;;;8.23;;
70169;SDS011;57543;45.442;9.212;2023-05-19T13:01:22;15.07;;;7.50;;
70169;SDS011;57543;45.442;9.212;2023-05-19T13:04:26;14.18;;;7.90;;
70169;SDS011;57543;45.442;9.212;2023-05-19T13:07:30;15.30;;;8.45;;
70169;SDS011;57543;45.442;9.212;2023-05-19T13:10:34;12.52;;;7.75;;
70169;SDS011;57543;45.442;9.212;2023-05-19T13:13:39;15.68;;;8.68;;
70169;SDS011;57543;45.442;9.212;2023-05-19T13:16:43;15.03;;;8.67;;
70169;SDS011;57543;45.442;9.212;2023-05-19T13:19:51;15.02;;;8.60;;
70169;SDS011;57543;45.442;9.212;2023-05-19T13:22:55;14.13;;;9.35;;
70169;SDS011;57543;45.442;9.212;2023-05-19T13:25:59;17.05;;;9.20;;
70169;SDS011;57543;45.442;9.212;2023-05-19T13:29:02;13.52;;;8.60;;
70169;SDS011;57543;45.442;9.212;2023-05-19T13:32:06;16.90;;;8.30;;
70169;SDS011;57543;45.442;9.212;2023-05-19T13:35:13;16.65;;;9.43;;
70169;SDS011;57543;45.442;9.212;2023-05-19T13:38:17;16.85;;;9.07;;
70169;SDS011;57543;45.442;9.212;2023-05-19T13:41:21;16.02;;;8.55;;
70169;SDS011;57543;45.442;9.212;2023-05-19T13:44:28;13.98;;;8.52;;
70169;SDS011;57543;45.442;9.212;2023-05-19T13:47:35;13.83;;;8.57;;
70169;SDS011;57543;45.442;9.212;2023-05-19T13:50:39;15.93;;;8.68;;
70169;SDS011;57543;45.442;9.212;2023-05-19T13:53:42;14.63;;;8.38;;
70169;SDS011;57543;45.442;9.212;2023-05-19T13:56:49;15.85;;;8.43;;
70169;SDS011;57543;45.442;9.212;2023-05-19T13:59:53;17.08;;;7.97;;
70169;SDS011;57543;45.442;9.212;2023-05-19T14:02:57;17.80;;;8.43;;
70169;SDS011;57543;45.442;9.212;2023-05-19T14:06:02;16.88;;;8.80;;
70169;SDS011;57543;45.442;9.212;2023-05-19T14:09:06;14.35;;;8.65;;
70169;SDS011;57543;45.442;9.212;2023-05-19T14:12:10;13.88;;;8.23;;
70169;SDS011;57543;45.442;9.212;2023-05-19T14:15:14;12.18;;;7.55;;
70169;SDS011;57543;45.442;9.212;2023-05-19T14:18:18;12.47;;;6.43;;
70169;SDS011;57543;45.442;9.212;2023-05-19T14:21:22;9.82;;;6.18;;
70169;SDS011;57543;45.442;9.212;2023-05-19T14:24:25;11.57;;;7.13;;
70169;SDS011;57543;45.442;9.212;2023-05-19T14:27:29;10.57;;;5.85;;
70169;SDS011;57543;45.442;9.212;2023-05-19T14:30:32;11.15;;;6.43;;
70169;SDS011;57543;45.442;9.212;2023-05-19T14:33:36;10.90;;;6.10;;
70169;SDS011;57543;45.442;9.212;2023-05-19T14:36:39;11.75;;;6.07;;
70169;SDS011;57543;45.442;9.212;2023-05-19T14:39:42;11.43;;;6.38;;
70169;SDS011;57543;45.442;9.212;2023-05-19T14:42:46;10.95;;;6.85;;
70169;SDS011;57543;45.442;9.212;2023-05-19T14:45:52;11.00;;;6.47;;
70169;SDS011;57543;45.442;9.212;2023-05-19T14:48:56;11.20;;;6.30;;
70169;SDS011;57543;45.442;9.212;2023-05-19T14:51:59;13.48;;;7.45;;
70169;SDS011;57543;45.442;9.212;2023-05-19T14:55:03;10.95;;;6.25;;
70169;SDS011;57543;45.442;9.212;2023-05-19T14:58:07;11.73;;;6.72;;
70169;SDS011;57543;45.442;9.212;2023-05-19T15:01:11;12.50;;;7.00;;
70169;SDS011;57543;45.442;9.212;2023-05-19T15:04:14;10.43;;;6.03;;
70169;SDS011;57543;45.442;9.212;2023-05-19T15:07:18;9.82;;;5.85;;
70169;SDS011;57543;45.442;9.212;2023-05-19T15:10:25;9.95;;;5.95;;
70169;SDS011;57543;45.442;9.212;2023-05-19T15:13:29;9.07;;;5.30;;
70169;SDS011;57543;45.442;9.212;2023-05-19T15:16:32;8.15;;;5.30;;
70169;SDS011;57543;45.442;9.212;2023-05-19T15:19:36;9.27;;;4.80;;
70169;SDS011;57543;45.442;9.212;2023-05-19T15:22:45;8.95;;;5.03;;
70169;SDS011;57543;45.442;9.212;2023-05-19T15:25:49;10.07;;;5.93;;
70169;SDS011;57543;45.442;9.212;2023-05-19T15:28:52;11.13;;;6.20;;
70169;SDS011;57543;45.442;9.212;2023-05-19T15:32:00;10.75;;;6.30;;
70169;SDS011;57543;45.442;9.212;2023-05-19T15:35:04;11.13;;;6.40;;
70169;SDS011;57543;45.442;9.212;2023-05-19T15:38:07;9.85;;;5.80;;
70169;SDS011;57543;45.442;9.212;2023-05-19T15:41:14;11.13;;;5.80;;
70169;SDS011;57543;45.442;9.212;2023-05-19T15:44:18;9.90;;;4.88;;
70169;SDS011;57543;45.442;9.212;2023-05-19T15:47:22;8.10;;;4.90;;
70169;SDS011;57543;45.442;9.212;2023-05-19T15:50:26;7.10;;;4.30;;
70169;SDS011;57543;45.442;9.212;2023-05-19T15:53:29;8.38;;;4.93;;
70169;SDS011;57543;45.442;9.212;2023-05-19T15:56:32;9.00;;;5.30;;
70169;SDS011;57543;45.442;9.212;2023-05-19T15:59:37;9.18;;;4.93;;
70169;SDS011;57543;45.442;9.212;2023-05-19T16:02:40;11.30;;;5.60;;
70169;SDS011;57543;45.442;9.212;2023-05-19T16:05:44;9.27;;;4.83;;
70169;SDS011;57543;45.442;9.212;2023-05-19T16:08:48;8.27;;;4.68;;
70169;SDS011;57543;45.442;9.212;2023-05-19T16:11:51;8.63;;;4.78;;
70169;SDS011;57543;45.442;9.212;2023-05-19T16:14:55;8.95;;;4.57;;
70169;SDS011;57543;45.442;9.212;2023-05-19T16:17:59;7.32;;;4.53;;
70169;SDS011;57543;45.442;9.212;2023-05-19T16:21:03;9.00;;;4.57;;
70169;SDS011;57543;45.442;9.212;2023-05-19T16:24:07;9.70;;;4.97;;
70169;SDS011;57543;45.442;9.212;2023-05-19T16:27:10;8.25;;;4.63;;
70169;SDS011;57543;45.442;9.212;2023-05-19T16:30:14;8.77;;;5.20;;
70169;SDS011;57543;45.442;9.212;2023-05-19T16:33:18;7.55;;;4.80;;
70169;SDS011;57543;45.442;9.212;2023-05-19T16:36:21;7.67;;;4.80;;
70169;SDS011;57543;45.442;9.212;2023-05-19T16:39:25;10.77;;;5.50;;
70169;SDS011;57543;45.442;9.212;2023-05-19T16:42:29;9.38;;;5.32;;
70169;SDS011;57543;45.442;9.212;2023-05-19T16:45:34;9.20;;;5.10;;
70169;SDS011;57543;45.442;9.212;2023-05-19T16:48:38;9.18;;;5.32;;
70169;SDS011;57543;45.442;9.212;2023-05-19T16:51:41;11.27;;;5.30;;
70169;SDS011;57543;45.442;9.212;2023-05-19T16:54:45;8.05;;;4.55;;
70169;SDS011;57543;45.442;9.212;2023-05-19T16:57:49;7.65;;;5.30;;
70169;SDS011;57543;45.442;9.212;2023-05-19T17:00:53;7.90;;;4.68;;
70169;SDS011;57543;45.442;9.212;2023-05-19T17:03:57;8.98;;;5.25;;
70169;SDS011;57543;45.442;9.212;2023-05-19T17:07:00;8.43;;;5.10;;
70169;SDS011;57543;45.442;9.212;2023-05-19T17:10:04;10.02;;;5.15;;
70169;SDS011;57543;45.442;9.212;2023-05-19T17:13:09;8.00;;;4.60;;
70169;SDS011;57543;45.442;9.212;2023-05-19T17:16:13;8.07;;;4.35;;
70169;SDS011;57543;45.442;9.212;2023-05-19T17:19:17;9.55;;;4.90;;
70169;SDS011;57543;45.442;9.212;2023-05-19T17:22:20;7.50;;;4.00;;
70169;SDS011;57543;45.442;9.212;2023-05-19T17:25:24;7.00;;;4.18;;
70169;SDS011;57543;45.442;9.212;2023-05-19T17:28:28;7.70;;;4.40;;
70169;SDS011;57543;45.442;9.212;2023-05-19T17:31:32;7.10;;;4.10;;
70169;SDS011;57543;45.442;9.212;2023-05-19T17:34:35;8.68;;;4.45;;
70169;SDS011;57543;45.442;9.212;2023-05-19T17:37:39;9.77;;;4.50;;
70169;SDS011;57543;45.442;9.212;2023-05-19T17:40:42;9.55;;;5.47;;
70169;SDS011;57543;45.442;9.212;2023-05-19T17:43:46;8.65;;;5.22;;
70169;SDS011;57543;45.442;9.212;2023-05-19T17:46:50;7.70;;;4.07;;
70169;SDS011;57543;45.442;9.212;2023-05-19T17:49:54;8.20;;;4.88;;
70169;SDS011;57543;45.442;9.212;2023-05-19T17:52:58;9.40;;;5.13;;
70169;SDS011;57543;45.442;9.212;2023-05-19T17:56:02;8.38;;;4.43;;
70169;SDS011;57543;45.442;9.212;2023-05-19T17:59:08;9.35;;;5.18;;
70169;SDS011;57543;45.442;9.212;2023-05-19T18:02:13;9.05;;;5.50;;
70169;SDS011;57543;45.442;9.212;2023-05-19T18:05:18;8.13;;;4.93;;
70169;SDS011;57543;45.442;9.212;2023-05-19T18:08:22;8.90;;;5.30;;
70169;SDS011;57543;45.442;9.212;2023-05-19T18:11:28;9.25;;;5.20;;
70169;SDS011;57543;45.442;9.212;2023-05-19T18:14:31;8.77;;;5.28;;
70169;SDS011;57543;45.442;9.212;2023-05-19T18:17:34;11.00;;;5.28;;
70169;SDS011;57543;45.442;9.212;2023-05-19T18:20:38;8.73;;;5.45;;
70169;SDS011;57543;45.442;9.212;2023-05-19T18:23:43;8.97;;;4.70;;
70169;SDS011;57543;45.442;9.212;2023-05-19T18:26:47;7.93;;;4.80;;
70169;SDS011;57543;45.442;9.212;2023-05-19T18:29:51;8.73;;;5.40;;
70169;SDS011;57543;45.442;9.212;2023-05-19T18:32:55;7.45;;;4.60;;
70169;SDS011;57543;45.442;9.212;2023-05-19T18:35:59;7.65;;;4.43;;
70169;SDS011;57543;45.442;9.212;2023-05-19T18:39:03;8.63;;;5.17;;
70169;SDS011;57543;45.442;9.212;2023-05-19T18:42:06;10.70;;;5.60;;